sensor_id;sensor_type;location;lat;lon;timestamp;temperature;humidity
69084;SHT31;56185;48.526;9.044;2024-03-23T00:54:28;8.95;74.23
69084;SHT31;56185;48.526;9.044;2024-03-23T00:56:54;8.89;74.46
69084;SHT31;56185;48.526;9.044;2024-03-23T00:59:19;8.85;75.17
69084;SHT31;56185;48.526;9.044;2024-03-23T01:01:44;8.85;74.36
69084;SHT31;56185;48.526;9.044;2024-03-23T01:04:09;8.87;74.64
69084;SHT31;56185;48.526;9.044;2024-03-23T01:06:35;8.80;74.85
69084;SHT31;56185;48.526;9.044;2024-03-23T01:09:00;8.78;74.63
69084;SHT31;56185;48.526;9.044;2024-03-23T01:11:25;8.85;74.33
69084;SHT31;56185;48.526;9.044;2024-03-23T01:13:50;8.75;74.03
69084;SHT31;56185;48.526;9.044;2024-03-23T01:16:15;8.78;73.95
69084;SHT31;56185;48.526;9.044;2024-03-23T01:18:41;8.67;74.20
69084;SHT31;56185;48.526;9.044;2024-03-23T01:21:06;8.68;73.82
69084;SHT31;56185;48.526;9.044;2024-03-23T01:23:31;8.44;75.68
69084;SHT31;56185;48.526;9.044;2024-03-23T01:25:56;8.44;76.62
69084;SHT31;56185;48.526;9.044;2024-03-23T01:28:22;8.61;75.83
69084;SHT31;56185;48.526;9.044;2024-03-23T01:30:47;8.84;74.23
69084;SHT31;56185;48.526;9.044;2024-03-23T01:33:12;8.64;73.76
69084;SHT31;56185;48.526;9.044;2024-03-23T01:35:38;8.53;73.98
69084;SHT31;56185;48.526;9.044;2024-03-23T01:38:03;8.52;74.86
69084;SHT31;56185;48.526;9.044;2024-03-23T01:40:29;8.42;75.83
69084;SHT31;56185;48.526;9.044;2024-03-23T01:43:12;8.50;75.28
69084;SHT31;56185;48.526;9.044;2024-03-23T01:45:38;8.50;75.15
69084;SHT31;56185;48.526;9.044;2024-03-23T01:48:03;8.50;75.42
69084;SHT31;56185;48.526;9.044;2024-03-23T01:50:29;8.42;74.91
69084;SHT31;56185;48.526;9.044;2024-03-23T01:52:55;8.42;75.30
69084;SHT31;56185;48.526;9.044;2024-03-23T01:55:21;8.40;75.26
69084;SHT31;56185;48.526;9.044;2024-03-23T01:57:46;8.40;74.77
69084;SHT31;56185;48.526;9.044;2024-03-23T02:00:12;8.33;74.94
69084;SHT31;56185;48.526;9.044;2024-03-23T02:02:45;8.30;74.92
69084;SHT31;56185;48.526;9.044;2024-03-23T02:05:13;8.54;74.08
69084;SHT31;56185;48.526;9.044;2024-03-23T02:07:39;8.43;75.11
69084;SHT31;56185;48.526;9.044;2024-03-23T02:10:06;8.39;75.55
69084;SHT31;56185;48.526;9.044;2024-03-23T02:12:32;8.47;75.53
69084;SHT31;56185;48.526;9.044;2024-03-23T02:14:57;8.56;75.44
69084;SHT31;56185;48.526;9.044;2024-03-23T02:17:22;8.57;76.12
69084;SHT31;56185;48.526;9.044;2024-03-23T02:19:47;8.64;75.87
69084;SHT31;56185;48.526;9.044;2024-03-23T02:22:13;8.50;76.10
69084;SHT31;56185;48.526;9.044;2024-03-23T02:24:38;8.65;75.63
69084;SHT31;56185;48.526;9.044;2024-03-23T02:27:04;8.75;75.41
69084;SHT31;56185;48.526;9.044;2024-03-23T02:29:29;8.75;75.21
69084;SHT31;56185;48.526;9.044;2024-03-23T02:31:54;8.77;74.89
69084;SHT31;56185;48.526;9.044;2024-03-23T02:34:19;8.64;75.12
69084;SHT31;56185;48.526;9.044;2024-03-23T02:36:45;8.74;74.88
69084;SHT31;56185;48.526;9.044;2024-03-23T02:39:10;8.64;75.30
69084;SHT31;56185;48.526;9.044;2024-03-23T02:41:36;8.81;75.63
69084;SHT31;56185;48.526;9.044;2024-03-23T02:44:01;8.61;75.72
69084;SHT31;56185;48.526;9.044;2024-03-23T02:46:27;8.68;75.65
69084;SHT31;56185;48.526;9.044;2024-03-23T02:48:52;8.81;75.35
69084;SHT31;56185;48.526;9.044;2024-03-23T02:51:17;8.95;74.67
69084;SHT31;56185;48.526;9.044;2024-03-23T02:53:42;8.91;75.20
69084;SHT31;56185;48.526;9.044;2024-03-23T02:56:08;9.00;75.30
69084;SHT31;56185;48.526;9.044;2024-03-23T02:58:33;9.00;75.56
69084;SHT31;56185;48.526;9.044;2024-03-23T03:00:58;8.97;74.81
69084;SHT31;56185;48.526;9.044;2024-03-23T03:03:24;9.05;74.61
69084;SHT31;56185;48.526;9.044;2024-03-23T03:05:55;9.04;74.71
69084;SHT31;56185;48.526;9.044;2024-03-23T03:08:20;9.00;74.93
69084;SHT31;56185;48.526;9.044;2024-03-23T03:10:45;9.14;74.98
69084;SHT31;56185;48.526;9.044;2024-03-23T03:13:11;9.07;75.18
69084;SHT31;56185;48.526;9.044;2024-03-23T03:15:36;9.23;74.24
69084;SHT31;56185;48.526;9.044;2024-03-23T03:18:01;9.07;74.93
69084;SHT31;56185;48.526;9.044;2024-03-23T03:20:26;9.15;74.56
69084;SHT31;56185;48.526;9.044;2024-03-23T03:22:52;9.14;74.82
69084;SHT31;56185;48.526;9.044;2024-03-23T03:25:19;9.01;74.83
69084;SHT31;56185;48.526;9.044;2024-03-23T03:27:44;9.10;74.52
69084;SHT31;56185;48.526;9.044;2024-03-23T03:30:10;8.95;75.21
69084;SHT31;56185;48.526;9.044;2024-03-23T03:32:35;8.85;76.34
69084;SHT31;56185;48.526;9.044;2024-03-23T03:35:01;8.91;76.21
69084;SHT31;56185;48.526;9.044;2024-03-23T03:37:26;9.02;75.22
69084;SHT31;56185;48.526;9.044;2024-03-23T03:39:51;8.92;75.46
69084;SHT31;56185;48.526;9.044;2024-03-23T03:42:16;8.94;75.81
69084;SHT31;56185;48.526;9.044;2024-03-23T03:44:41;8.89;76.08
69084;SHT31;56185;48.526;9.044;2024-03-23T03:47:07;8.77;76.62
69084;SHT31;56185;48.526;9.044;2024-03-23T03:49:32;8.81;77.17
69084;SHT31;56185;48.526;9.044;2024-03-23T03:51:57;8.78;77.48
69084;SHT31;56185;48.526;9.044;2024-03-23T03:54:23;8.64;78.92
69084;SHT31;56185;48.526;9.044;2024-03-23T03:56:48;8.70;78.64
69084;SHT31;56185;48.526;9.044;2024-03-23T03:59:13;8.54;80.41
69084;SHT31;56185;48.526;9.044;2024-03-23T04:01:38;8.59;80.54
69084;SHT31;56185;48.526;9.044;2024-03-23T04:04:04;8.64;81.00
69084;SHT31;56185;48.526;9.044;2024-03-23T04:06:29;8.82;80.73
69084;SHT31;56185;48.526;9.044;2024-03-23T04:08:54;8.88;80.41
69084;SHT31;56185;48.526;9.044;2024-03-23T04:11:19;8.88;80.55
69084;SHT31;56185;48.526;9.044;2024-03-23T04:13:44;8.88;80.52
69084;SHT31;56185;48.526;9.044;2024-03-23T04:16:10;8.94;80.45
69084;SHT31;56185;48.526;9.044;2024-03-23T04:18:35;8.98;80.35
69084;SHT31;56185;48.526;9.044;2024-03-23T04:21:00;9.11;80.01
69084;SHT31;56185;48.526;9.044;2024-03-23T04:23:26;9.15;80.10
69084;SHT31;56185;48.526;9.044;2024-03-23T04:25:51;9.21;80.20
69084;SHT31;56185;48.526;9.044;2024-03-23T04:28:16;9.32;79.85
69084;SHT31;56185;48.526;9.044;2024-03-23T04:30:41;9.29;79.98
69084;SHT31;56185;48.526;9.044;2024-03-23T04:33:07;9.21;80.38
69084;SHT31;56185;48.526;9.044;2024-03-23T04:35:32;9.32;80.23
69084;SHT31;56185;48.526;9.044;2024-03-23T04:37:57;9.21;80.56
69084;SHT31;56185;48.526;9.044;2024-03-23T04:40:22;9.38;80.30
69084;SHT31;56185;48.526;9.044;2024-03-23T04:42:47;9.36;79.82
69084;SHT31;56185;48.526;9.044;2024-03-23T04:45:16;9.35;80.13
69084;SHT31;56185;48.526;9.044;2024-03-23T04:47:41;9.44;80.26
69084;SHT31;56185;48.526;9.044;2024-03-23T04:50:06;9.50;80.07
69084;SHT31;56185;48.526;9.044;2024-03-23T04:52:32;9.43;80.22
69084;SHT31;56185;48.526;9.044;2024-03-23T04:54:57;9.50;79.59
69084;SHT31;56185;48.526;9.044;2024-03-23T04:57:22;9.59;79.20
69084;SHT31;56185;48.526;9.044;2024-03-23T04:59:48;9.64;78.92
69084;SHT31;56185;48.526;9.044;2024-03-23T05:02:14;9.73;78.09
69084;SHT31;56185;48.526;9.044;2024-03-23T05:04:39;9.76;78.35
69084;SHT31;56185;48.526;9.044;2024-03-23T05:07:04;9.84;78.17
69084;SHT31;56185;48.526;9.044;2024-03-23T05:09:30;9.89;78.08
69084;SHT31;56185;48.526;9.044;2024-03-23T05:11:56;10.11;80.08
69084;SHT31;56185;48.526;9.044;2024-03-23T05:14:21;10.17;81.86
69084;SHT31;56185;48.526;9.044;2024-03-23T05:16:46;10.11;82.83
69084;SHT31;56185;48.526;9.044;2024-03-23T05:19:12;10.11;83.90
69084;SHT31;56185;48.526;9.044;2024-03-23T05:21:37;10.05;84.26
69084;SHT31;56185;48.526;9.044;2024-03-23T05:24:02;10.07;84.81
69084;SHT31;56185;48.526;9.044;2024-03-23T05:26:28;10.20;84.66
69084;SHT31;56185;48.526;9.044;2024-03-23T05:28:53;10.24;85.08
69084;SHT31;56185;48.526;9.044;2024-03-23T05:31:27;10.20;85.73
69084;SHT31;56185;48.526;9.044;2024-03-23T05:33:52;10.24;86.03
69084;SHT31;56185;48.526;9.044;2024-03-23T05:36:18;10.01;87.13
69084;SHT31;56185;48.526;9.044;2024-03-23T05:38:43;10.14;86.81
69084;SHT31;56185;48.526;9.044;2024-03-23T05:41:09;10.00;87.09
69084;SHT31;56185;48.526;9.044;2024-03-23T05:43:34;10.00;87.01
69084;SHT31;56185;48.526;9.044;2024-03-23T05:46:00;9.69;88.00
69084;SHT31;56185;48.526;9.044;2024-03-23T05:48:26;9.81;87.43
69084;SHT31;56185;48.526;9.044;2024-03-23T05:50:52;9.70;87.01
69084;SHT31;56185;48.526;9.044;2024-03-23T05:53:18;9.62;87.30
69084;SHT31;56185;48.526;9.044;2024-03-23T05:55:44;9.62;87.66
69084;SHT31;56185;48.526;9.044;2024-03-23T05:58:10;9.59;86.75
69084;SHT31;56185;48.526;9.044;2024-03-23T06:00:35;9.56;87.06
69084;SHT31;56185;48.526;9.044;2024-03-23T06:03:00;9.50;87.30
69084;SHT31;56185;48.526;9.044;2024-03-23T06:05:26;9.59;87.69
69084;SHT31;56185;48.526;9.044;2024-03-23T06:07:51;9.63;87.45
69084;SHT31;56185;48.526;9.044;2024-03-23T06:10:16;9.66;87.36
69084;SHT31;56185;48.526;9.044;2024-03-23T06:12:42;9.66;86.50
69084;SHT31;56185;48.526;9.044;2024-03-23T06:15:07;9.57;86.05
69084;SHT31;56185;48.526;9.044;2024-03-23T06:17:33;9.56;85.58
69084;SHT31;56185;48.526;9.044;2024-03-23T06:19:58;9.62;85.47
69084;SHT31;56185;48.526;9.044;2024-03-23T06:22:23;9.50;83.98
69084;SHT31;56185;48.526;9.044;2024-03-23T06:24:48;9.42;82.60
69084;SHT31;56185;48.526;9.044;2024-03-23T06:27:14;9.21;80.75
69084;SHT31;56185;48.526;9.044;2024-03-23T06:29:39;9.11;82.09
69084;SHT31;56185;48.526;9.044;2024-03-23T06:32:04;9.10;82.22
69084;SHT31;56185;48.526;9.044;2024-03-23T06:34:30;9.14;82.31
69084;SHT31;56185;48.526;9.044;2024-03-23T06:36:56;9.01;81.64
69084;SHT31;56185;48.526;9.044;2024-03-23T06:39:21;9.04;81.75
69084;SHT31;56185;48.526;9.044;2024-03-23T06:41:52;8.98;81.44
69084;SHT31;56185;48.526;9.044;2024-03-23T06:44:18;8.89;82.18
69084;SHT31;56185;48.526;9.044;2024-03-23T06:46:43;9.04;82.98
69084;SHT31;56185;48.526;9.044;2024-03-23T06:49:09;9.18;82.53
69084;SHT31;56185;48.526;9.044;2024-03-23T06:51:34;9.10;81.54
69084;SHT31;56185;48.526;9.044;2024-03-23T06:53:59;9.11;81.46
69084;SHT31;56185;48.526;9.044;2024-03-23T06:56:24;9.07;81.28
69084;SHT31;56185;48.526;9.044;2024-03-23T06:58:50;8.98;80.87
69084;SHT31;56185;48.526;9.044;2024-03-23T07:01:15;9.01;81.59
69084;SHT31;56185;48.526;9.044;2024-03-23T07:03:40;9.00;80.62
69084;SHT31;56185;48.526;9.044;2024-03-23T07:06:05;9.05;80.79
69084;SHT31;56185;48.526;9.044;2024-03-23T07:08:31;8.91;81.35
69084;SHT31;56185;48.526;9.044;2024-03-23T07:10:56;8.88;81.05
69084;SHT31;56185;48.526;9.044;2024-03-23T07:13:21;8.78;81.92
69084;SHT31;56185;48.526;9.044;2024-03-23T07:15:53;8.87;81.11
69084;SHT31;56185;48.526;9.044;2024-03-23T07:18:18;8.92;81.33
69084;SHT31;56185;48.526;9.044;2024-03-23T07:20:53;8.97;81.78
69084;SHT31;56185;48.526;9.044;2024-03-23T07:23:18;9.08;81.79
69084;SHT31;56185;48.526;9.044;2024-03-23T07:25:44;9.12;80.85
69084;SHT31;56185;48.526;9.044;2024-03-23T07:28:09;9.15;80.29
69084;SHT31;56185;48.526;9.044;2024-03-23T07:30:34;9.11;80.57
69084;SHT31;56185;48.526;9.044;2024-03-23T07:32:59;9.07;81.18
69084;SHT31;56185;48.526;9.044;2024-03-23T07:35:24;9.22;82.08
69084;SHT31;56185;48.526;9.044;2024-03-23T07:37:50;9.29;81.11
69084;SHT31;56185;48.526;9.044;2024-03-23T07:40:15;9.21;81.79
69084;SHT31;56185;48.526;9.044;2024-03-23T07:42:40;9.25;81.82
69084;SHT31;56185;48.526;9.044;2024-03-23T07:45:06;9.39;81.15
69084;SHT31;56185;48.526;9.044;2024-03-23T07:47:31;9.35;81.04
69084;SHT31;56185;48.526;9.044;2024-03-23T07:49:56;9.53;81.72
69084;SHT31;56185;48.526;9.044;2024-03-23T07:52:22;9.44;81.50
69084;SHT31;56185;48.526;9.044;2024-03-23T07:54:47;9.46;80.45
69084;SHT31;56185;48.526;9.044;2024-03-23T07:57:12;9.59;81.19
69084;SHT31;56185;48.526;9.044;2024-03-23T07:59:37;9.46;79.17
69084;SHT31;56185;48.526;9.044;2024-03-23T08:02:02;9.35;78.66
69084;SHT31;56185;48.526;9.044;2024-03-23T08:04:28;9.38;78.77
69084;SHT31;56185;48.526;9.044;2024-03-23T08:06:53;9.50;79.08
69084;SHT31;56185;48.526;9.044;2024-03-23T08:09:18;9.18;75.93
69084;SHT31;56185;48.526;9.044;2024-03-23T08:11:44;9.18;77.89
69084;SHT31;56185;48.526;9.044;2024-03-23T08:14:09;9.18;77.15
69084;SHT31;56185;48.526;9.044;2024-03-23T08:16:34;9.16;77.88
69084;SHT31;56185;48.526;9.044;2024-03-23T08:18:59;9.25;77.65
69084;SHT31;56185;48.526;9.044;2024-03-23T08:21:24;9.28;77.22
69084;SHT31;56185;48.526;9.044;2024-03-23T08:23:50;9.39;77.15
69084;SHT31;56185;48.526;9.044;2024-03-23T08:26:16;9.32;74.80
69084;SHT31;56185;48.526;9.044;2024-03-23T08:28:41;9.47;74.50
69084;SHT31;56185;48.526;9.044;2024-03-23T08:31:08;9.46;73.45
69084;SHT31;56185;48.526;9.044;2024-03-23T08:33:34;9.44;73.62
69084;SHT31;56185;48.526;9.044;2024-03-23T08:36:09;9.57;72.62
69084;SHT31;56185;48.526;9.044;2024-03-23T08:38:35;9.89;73.36
69084;SHT31;56185;48.526;9.044;2024-03-23T08:41:10;9.93;70.73
69084;SHT31;56185;48.526;9.044;2024-03-23T08:43:37;9.98;71.76
69084;SHT31;56185;48.526;9.044;2024-03-23T08:46:04;9.90;70.17
69084;SHT31;56185;48.526;9.044;2024-03-23T08:48:30;9.79;68.82
69084;SHT31;56185;48.526;9.044;2024-03-23T08:51:05;9.59;69.14
69084;SHT31;56185;48.526;9.044;2024-03-23T08:53:30;9.43;69.23
69084;SHT31;56185;48.526;9.044;2024-03-23T08:55:56;9.50;67.85
69084;SHT31;56185;48.526;9.044;2024-03-23T08:58:23;9.64;69.83
69084;SHT31;56185;48.526;9.044;2024-03-23T09:00:49;9.33;68.83
69084;SHT31;56185;48.526;9.044;2024-03-23T09:03:14;9.36;69.11
69084;SHT31;56185;48.526;9.044;2024-03-23T09:05:39;9.38;69.17
69084;SHT31;56185;48.526;9.044;2024-03-23T09:08:05;9.18;66.56
69084;SHT31;56185;48.526;9.044;2024-03-23T09:10:31;9.36;69.79
69084;SHT31;56185;48.526;9.044;2024-03-23T09:12:56;9.08;66.82
69084;SHT31;56185;48.526;9.044;2024-03-23T09:15:21;9.01;66.43
69084;SHT31;56185;48.526;9.044;2024-03-23T09:17:46;9.12;67.85
69084;SHT31;56185;48.526;9.044;2024-03-23T09:20:12;9.22;69.26
69084;SHT31;56185;48.526;9.044;2024-03-23T09:22:37;9.10;67.54
69084;SHT31;56185;48.526;9.044;2024-03-23T09:25:02;9.08;66.00
69084;SHT31;56185;48.526;9.044;2024-03-23T09:27:28;9.36;67.58
69084;SHT31;56185;48.526;9.044;2024-03-23T09:29:53;9.56;68.48
69084;SHT31;56185;48.526;9.044;2024-03-23T09:32:18;9.60;65.99
69084;SHT31;56185;48.526;9.044;2024-03-23T09:34:43;9.73;66.12
69084;SHT31;56185;48.526;9.044;2024-03-23T09:37:09;9.89;66.43
69084;SHT31;56185;48.526;9.044;2024-03-23T09:39:34;10.12;64.82
69084;SHT31;56185;48.526;9.044;2024-03-23T09:41:59;10.25;64.79
69084;SHT31;56185;48.526;9.044;2024-03-23T09:44:25;10.37;63.32
69084;SHT31;56185;48.526;9.044;2024-03-23T09:46:50;10.22;62.91
69084;SHT31;56185;48.526;9.044;2024-03-23T09:49:16;10.14;63.59
69084;SHT31;56185;48.526;9.044;2024-03-23T09:51:41;10.28;62.09
69084;SHT31;56185;48.526;9.044;2024-03-23T09:54:06;10.73;64.93
69084;SHT31;56185;48.526;9.044;2024-03-23T09:56:31;11.00;64.56
69084;SHT31;56185;48.526;9.044;2024-03-23T09:59:03;11.21;64.88
69084;SHT31;56185;48.526;9.044;2024-03-23T10:01:32;10.88;59.46
69084;SHT31;56185;48.526;9.044;2024-03-23T10:03:57;10.55;62.85
69084;SHT31;56185;48.526;9.044;2024-03-23T10:06:22;10.70;63.35
69084;SHT31;56185;48.526;9.044;2024-03-23T10:08:47;10.65;64.93
69084;SHT31;56185;48.526;9.044;2024-03-23T10:11:14;10.07;63.48
69084;SHT31;56185;48.526;9.044;2024-03-23T10:13:41;10.05;64.69
69084;SHT31;56185;48.526;9.044;2024-03-23T10:16:07;10.21;64.88
69084;SHT31;56185;48.526;9.044;2024-03-23T10:18:37;10.34;65.23
69084;SHT31;56185;48.526;9.044;2024-03-23T10:21:06;10.51;63.81
69084;SHT31;56185;48.526;9.044;2024-03-23T10:23:35;10.70;62.70
69084;SHT31;56185;48.526;9.044;2024-03-23T10:26:20;10.73;60.69
69084;SHT31;56185;48.526;9.044;2024-03-23T10:28:52;11.23;63.65
69084;SHT31;56185;48.526;9.044;2024-03-23T10:31:18;11.62;58.68
69084;SHT31;56185;48.526;9.044;2024-03-23T10:33:47;11.67;57.14
69084;SHT31;56185;48.526;9.044;2024-03-23T10:36:12;11.71;55.96
69084;SHT31;56185;48.526;9.044;2024-03-23T10:38:40;11.37;56.05
69084;SHT31;56185;48.526;9.044;2024-03-23T10:41:07;11.27;55.10
69084;SHT31;56185;48.526;9.044;2024-03-23T10:43:33;11.14;55.45
69084;SHT31;56185;48.526;9.044;2024-03-23T10:45:58;10.65;54.86
69084;SHT31;56185;48.526;9.044;2024-03-23T10:48:23;10.38;55.54
69084;SHT31;56185;48.526;9.044;2024-03-23T10:50:49;10.05;56.90
69084;SHT31;56185;48.526;9.044;2024-03-23T10:53:14;9.80;60.91
69084;SHT31;56185;48.526;9.044;2024-03-23T10:55:43;9.00;71.58
69084;SHT31;56185;48.526;9.044;2024-03-23T10:58:08;8.25;74.69
69084;SHT31;56185;48.526;9.044;2024-03-23T11:00:36;7.81;75.57
69084;SHT31;56185;48.526;9.044;2024-03-23T11:03:44;7.88;77.85
69084;SHT31;56185;48.526;9.044;2024-03-23T11:06:09;7.92;74.97
69084;SHT31;56185;48.526;9.044;2024-03-23T11:08:36;8.15;74.77
69084;SHT31;56185;48.526;9.044;2024-03-23T11:11:18;8.63;76.48
69084;SHT31;56185;48.526;9.044;2024-03-23T11:13:44;9.00;75.65
69084;SHT31;56185;48.526;9.044;2024-03-23T11:16:16;8.92;72.48
69084;SHT31;56185;48.526;9.044;2024-03-23T11:18:43;8.85;70.40
69084;SHT31;56185;48.526;9.044;2024-03-23T11:21:08;8.61;69.67
69084;SHT31;56185;48.526;9.044;2024-03-23T11:23:33;8.73;71.01
69084;SHT31;56185;48.526;9.044;2024-03-23T11:25:59;8.75;68.35
69084;SHT31;56185;48.526;9.044;2024-03-23T11:28:24;8.85;70.51
69084;SHT31;56185;48.526;9.044;2024-03-23T11:30:49;8.75;66.51
69084;SHT31;56185;48.526;9.044;2024-03-23T11:33:15;8.89;66.90
69084;SHT31;56185;48.526;9.044;2024-03-23T11:35:41;8.84;66.96
69084;SHT31;56185;48.526;9.044;2024-03-23T11:38:14;9.05;68.58
69084;SHT31;56185;48.526;9.044;2024-03-23T11:40:41;9.19;68.87
69084;SHT31;56185;48.526;9.044;2024-03-23T11:43:12;9.11;65.80
69084;SHT31;56185;48.526;9.044;2024-03-23T11:45:48;9.07;64.24
69084;SHT31;56185;48.526;9.044;2024-03-23T11:48:18;8.97;63.94
69084;SHT31;56185;48.526;9.044;2024-03-23T11:50:45;9.05;65.70
69084;SHT31;56185;48.526;9.044;2024-03-23T11:53:18;9.05;63.69
69084;SHT31;56185;48.526;9.044;2024-03-23T11:55:51;9.11;64.22
69084;SHT31;56185;48.526;9.044;2024-03-23T11:58:19;9.26;66.12
69084;SHT31;56185;48.526;9.044;2024-03-23T12:00:58;9.12;63.27
69084;SHT31;56185;48.526;9.044;2024-03-23T12:03:23;8.95;64.34
69084;SHT31;56185;48.526;9.044;2024-03-23T12:05:49;9.05;64.78
69084;SHT31;56185;48.526;9.044;2024-03-23T12:08:36;9.02;64.21
69084;SHT31;56185;48.526;9.044;2024-03-23T12:13:36;9.36;64.27
69084;SHT31;56185;48.526;9.044;2024-03-23T12:16:12;9.36;65.53
69084;SHT31;56185;48.526;9.044;2024-03-23T12:18:48;9.29;66.53
69084;SHT31;56185;48.526;9.044;2024-03-23T12:21:13;9.22;65.31
69084;SHT31;56185;48.526;9.044;2024-03-23T12:23:39;9.11;66.99
69084;SHT31;56185;48.526;9.044;2024-03-23T12:26:05;8.74;67.62
69084;SHT31;56185;48.526;9.044;2024-03-23T12:28:30;8.53;68.13
69084;SHT31;56185;48.526;9.044;2024-03-23T12:30:58;8.57;68.96
69084;SHT31;56185;48.526;9.044;2024-03-23T12:33:24;8.59;67.86
69084;SHT31;56185;48.526;9.044;2024-03-23T12:35:52;8.74;67.70
69084;SHT31;56185;48.526;9.044;2024-03-23T12:38:18;9.29;65.93
69084;SHT31;56185;48.526;9.044;2024-03-23T12:40:46;9.56;65.31
69084;SHT31;56185;48.526;9.044;2024-03-23T12:43:12;9.79;65.41
69084;SHT31;56185;48.526;9.044;2024-03-23T12:45:37;9.76;64.03
69084;SHT31;56185;48.526;9.044;2024-03-23T12:48:02;9.72;64.56
69084;SHT31;56185;48.526;9.044;2024-03-23T12:50:28;9.49;64.40
69084;SHT31;56185;48.526;9.044;2024-03-23T12:52:53;9.32;65.48
69084;SHT31;56185;48.526;9.044;2024-03-23T12:55:18;9.36;66.65
69084;SHT31;56185;48.526;9.044;2024-03-23T12:57:46;9.42;66.70
69084;SHT31;56185;48.526;9.044;2024-03-23T13:00:12;9.35;65.90
69084;SHT31;56185;48.526;9.044;2024-03-23T13:02:38;9.60;66.32
69084;SHT31;56185;48.526;9.044;2024-03-23T13:05:04;9.74;64.74
69084;SHT31;56185;48.526;9.044;2024-03-23T13:07:29;10.11;65.65
69084;SHT31;56185;48.526;9.044;2024-03-23T13:09:54;10.42;62.82
69084;SHT31;56185;48.526;9.044;2024-03-23T13:12:20;10.80;62.71
69084;SHT31;56185;48.526;9.044;2024-03-23T13:14:45;11.19;61.91
69084;SHT31;56185;48.526;9.044;2024-03-23T13:17:10;11.28;61.19
69084;SHT31;56185;48.526;9.044;2024-03-23T13:19:36;11.54;59.38
69084;SHT31;56185;48.526;9.044;2024-03-23T13:22:01;11.34;59.37
69084;SHT31;56185;48.526;9.044;2024-03-23T13:24:27;10.83;59.72
69084;SHT31;56185;48.526;9.044;2024-03-23T13:26:56;10.37;60.88
69084;SHT31;56185;48.526;9.044;2024-03-23T13:29:22;9.81;60.09
69084;SHT31;56185;48.526;9.044;2024-03-23T13:31:48;9.56;61.00
69084;SHT31;56185;48.526;9.044;2024-03-23T13:34:14;9.08;62.82
69084;SHT31;56185;48.526;9.044;2024-03-23T13:36:40;9.28;62.66
69084;SHT31;56185;48.526;9.044;2024-03-23T13:39:06;9.47;62.10
69084;SHT31;56185;48.526;9.044;2024-03-23T13:41:31;9.35;61.53
69084;SHT31;56185;48.526;9.044;2024-03-23T13:43:57;9.26;63.68
69084;SHT31;56185;48.526;9.044;2024-03-23T13:46:22;9.44;62.63
69084;SHT31;56185;48.526;9.044;2024-03-23T13:48:47;9.33;62.59
69084;SHT31;56185;48.526;9.044;2024-03-23T13:51:12;9.39;63.14
69084;SHT31;56185;48.526;9.044;2024-03-23T13:53:40;9.42;62.22
69084;SHT31;56185;48.526;9.044;2024-03-23T13:56:06;9.38;61.58
69084;SHT31;56185;48.526;9.044;2024-03-23T13:58:31;9.42;60.57
69084;SHT31;56185;48.526;9.044;2024-03-23T14:00:57;9.60;61.01
69084;SHT31;56185;48.526;9.044;2024-03-23T14:03:22;9.74;61.46
69084;SHT31;56185;48.526;9.044;2024-03-23T14:05:47;9.39;64.60
69084;SHT31;56185;48.526;9.044;2024-03-23T14:08:13;8.52;65.66
69084;SHT31;56185;48.526;9.044;2024-03-23T14:10:41;8.29;66.64
69084;SHT31;56185;48.526;9.044;2024-03-23T14:13:07;8.21;69.33
69084;SHT31;56185;48.526;9.044;2024-03-23T14:15:32;8.37;65.50
69084;SHT31;56185;48.526;9.044;2024-03-23T14:17:58;8.50;67.66
69084;SHT31;56185;48.526;9.044;2024-03-23T14:20:23;9.00;68.73
69084;SHT31;56185;48.526;9.044;2024-03-23T14:22:49;9.49;67.57
69084;SHT31;56185;48.526;9.044;2024-03-23T14:25:15;9.84;64.56
69084;SHT31;56185;48.526;9.044;2024-03-23T14:27:40;10.18;60.81
69084;SHT31;56185;48.526;9.044;2024-03-23T14:30:06;10.39;59.39
69084;SHT31;56185;48.526;9.044;2024-03-23T14:32:31;10.66;59.38
69084;SHT31;56185;48.526;9.044;2024-03-23T14:34:57;10.86;57.33
69084;SHT31;56185;48.526;9.044;2024-03-23T14:37:22;10.80;57.40
69084;SHT31;56185;48.526;9.044;2024-03-23T14:39:47;10.51;57.25
69084;SHT31;56185;48.526;9.044;2024-03-23T14:42:12;10.42;58.17
69084;SHT31;56185;48.526;9.044;2024-03-23T14:44:37;10.24;58.30
69084;SHT31;56185;48.526;9.044;2024-03-23T14:47:03;10.00;61.07
69084;SHT31;56185;48.526;9.044;2024-03-23T14:49:28;9.94;61.22
69084;SHT31;56185;48.526;9.044;2024-03-23T14:51:53;9.74;65.10
69084;SHT31;56185;48.526;9.044;2024-03-23T14:54:21;9.31;66.46
69084;SHT31;56185;48.526;9.044;2024-03-23T14:56:47;8.61;69.86
69084;SHT31;56185;48.526;9.044;2024-03-23T14:59:12;7.61;71.01
69084;SHT31;56185;48.526;9.044;2024-03-23T15:01:37;7.24;75.98
69084;SHT31;56185;48.526;9.044;2024-03-23T15:04:03;7.54;73.91
69084;SHT31;56185;48.526;9.044;2024-03-23T15:06:28;7.78;76.49
69084;SHT31;56185;48.526;9.044;2024-03-23T15:08:53;8.26;77.30
69084;SHT31;56185;48.526;9.044;2024-03-23T15:11:18;8.67;75.31
69084;SHT31;56185;48.526;9.044;2024-03-23T15:13:44;9.01;74.47
69084;SHT31;56185;48.526;9.044;2024-03-23T15:16:09;9.29;76.94
69084;SHT31;56185;48.526;9.044;2024-03-23T15:18:34;9.29;72.71
69084;SHT31;56185;48.526;9.044;2024-03-23T15:21:01;9.05;72.70
69084;SHT31;56185;48.526;9.044;2024-03-23T15:23:26;8.87;74.10
69084;SHT31;56185;48.526;9.044;2024-03-23T15:25:55;8.80;73.79
69084;SHT31;56185;48.526;9.044;2024-03-23T15:28:21;8.70;74.43
69084;SHT31;56185;48.526;9.044;2024-03-23T15:30:46;8.46;73.47
69084;SHT31;56185;48.526;9.044;2024-03-23T15:33:11;8.44;75.34
69084;SHT31;56185;48.526;9.044;2024-03-23T15:35:36;8.46;73.72
69084;SHT31;56185;48.526;9.044;2024-03-23T15:38:01;8.52;74.76
69084;SHT31;56185;48.526;9.044;2024-03-23T15:40:27;8.74;76.23
69084;SHT31;56185;48.526;9.044;2024-03-23T15:42:52;8.94;75.10
69084;SHT31;56185;48.526;9.044;2024-03-23T15:45:17;9.04;75.00
69084;SHT31;56185;48.526;9.044;2024-03-23T15:47:42;9.07;73.39
69084;SHT31;56185;48.526;9.044;2024-03-23T15:50:08;9.15;72.33
69084;SHT31;56185;48.526;9.044;2024-03-23T15:52:36;9.26;71.73
69084;SHT31;56185;48.526;9.044;2024-03-23T15:55:05;9.22;70.88
69084;SHT31;56185;48.526;9.044;2024-03-23T15:57:32;9.18;72.19
69084;SHT31;56185;48.526;9.044;2024-03-23T15:59:57;9.11;71.82
69084;SHT31;56185;48.526;9.044;2024-03-23T16:02:22;8.87;70.37
69084;SHT31;56185;48.526;9.044;2024-03-23T16:04:47;8.64;71.98
69084;SHT31;56185;48.526;9.044;2024-03-23T16:07:13;8.64;71.99
69084;SHT31;56185;48.526;9.044;2024-03-23T16:09:38;8.32;71.39
69084;SHT31;56185;48.526;9.044;2024-03-23T16:12:03;7.98;71.04
69084;SHT31;56185;48.526;9.044;2024-03-23T16:14:29;7.86;70.68
69084;SHT31;56185;48.526;9.044;2024-03-23T16:16:54;8.02;73.26
69084;SHT31;56185;48.526;9.044;2024-03-23T16:19:19;7.99;74.67
69084;SHT31;56185;48.526;9.044;2024-03-23T16:21:44;7.85;71.09
69084;SHT31;56185;48.526;9.044;2024-03-23T16:24:10;7.81;73.72
69084;SHT31;56185;48.526;9.044;2024-03-23T16:26:35;7.99;74.33
69084;SHT31;56185;48.526;9.044;2024-03-23T16:29:00;8.25;71.94
69084;SHT31;56185;48.526;9.044;2024-03-23T16:31:25;8.33;69.14